sensor_id;sensor_type;location;lat;lon;timestamp;pressure;altitude;pressure_sealevel;temperature;humidity
62926;BME280;55732;52.248;-0.844;2022-08-05T00:01:24;101118.30;;;15.06;55.82
62926;BME280;55732;52.248;-0.844;2022-08-05T00:03:50;101118.34;;;15.00;55.79
62926;BME280;55732;52.248;-0.844;2022-08-05T00:06:17;101121.42;;;14.95;56.22
62926;BME280;55732;52.248;-0.844;2022-08-05T00:08:43;101113.15;;;14.89;56.31
62926;BME280;55732;52.248;-0.844;2022-08-05T00:11:11;101111.45;;;14.83;56.50
62926;BME280;55732;52.248;-0.844;2022-08-05T00:13:38;101114.50;;;14.78;56.85
62926;BME280;55732;52.248;-0.844;2022-08-05T00:16:05;101118.13;;;14.72;57.11
62926;BME280;55732;52.248;-0.844;2022-08-05T00:18:30;101117.98;;;14.66;57.37
62926;BME280;55732;52.248;-0.844;2022-08-05T00:20:56;101118.75;;;14.62;57.39
62926;BME280;55732;52.248;-0.844;2022-08-05T00:23:22;101122.86;;;14.58;57.54
62926;BME280;55732;52.248;-0.844;2022-08-05T00:25:49;101118.45;;;14.56;57.89
62926;BME280;55732;52.248;-0.844;2022-08-05T00:28:15;101126.66;;;14.49;57.99
62926;BME280;55732;52.248;-0.844;2022-08-05T00:30:41;101123.31;;;14.46;58.15
62926;BME280;55732;52.248;-0.844;2022-08-05T00:33:07;101130.78;;;14.41;58.23
62926;BME280;55732;52.248;-0.844;2022-08-05T00:35:33;101131.69;;;14.39;58.44
62926;BME280;55732;52.248;-0.844;2022-08-05T00:37:58;101130.11;;;14.35;58.56
62926;BME280;55732;52.248;-0.844;2022-08-05T00:40:25;101131.53;;;14.32;58.67
62926;BME280;55732;52.248;-0.844;2022-08-05T00:42:52;101132.64;;;14.27;58.83
62926;BME280;55732;52.248;-0.844;2022-08-05T00:45:18;101132.67;;;14.24;58.86
62926;BME280;55732;52.248;-0.844;2022-08-05T00:47:44;101125.08;;;14.22;58.88
62926;BME280;55732;52.248;-0.844;2022-08-05T00:50:10;101123.34;;;14.16;59.39
62926;BME280;55732;52.248;-0.844;2022-08-05T00:52:36;101129.58;;;14.10;59.20
62926;BME280;55732;52.248;-0.844;2022-08-05T00:55:02;101129.05;;;14.09;59.53
62926;BME280;55732;52.248;-0.844;2022-08-05T00:57:28;101122.52;;;14.07;59.58
62926;BME280;55732;52.248;-0.844;2022-08-05T00:59:53;101119.33;;;14.06;59.70
62926;BME280;55732;52.248;-0.844;2022-08-05T01:02:19;101121.45;;;14.08;59.65
62926;BME280;55732;52.248;-0.844;2022-08-05T01:04:44;101122.86;;;14.08;59.87
62926;BME280;55732;52.248;-0.844;2022-08-05T01:07:10;101122.35;;;14.05;59.98
62926;BME280;55732;52.248;-0.844;2022-08-05T01:09:36;101118.48;;;14.01;60.16
62926;BME280;55732;52.248;-0.844;2022-08-05T01:12:21;101121.33;;;14.01;60.07
62926;BME280;55732;52.248;-0.844;2022-08-05T01:15:18;101117.27;;;14.01;60.40
62926;BME280;55732;52.248;-0.844;2022-08-05T01:17:49;101116.73;;;14.00;60.48
62926;BME280;55732;52.248;-0.844;2022-08-05T01:21:19;101113.17;;;14.01;60.56
62926;BME280;55732;52.248;-0.844;2022-08-05T01:31:23;101132.43;;;14.06;60.74
62926;BME280;55732;52.248;-0.844;2022-08-05T01:34:03;101130.30;;;14.08;60.59
62926;BME280;55732;52.248;-0.844;2022-08-05T01:36:36;101132.94;;;14.11;60.82
62926;BME280;55732;52.248;-0.844;2022-08-05T01:39:04;101126.02;;;14.13;60.63
62926;BME280;55732;52.248;-0.844;2022-08-05T01:41:33;101121.77;;;14.14;60.75
62926;BME280;55732;52.248;-0.844;2022-08-05T01:44:01;101122.83;;;14.15;61.02
62926;BME280;55732;52.248;-0.844;2022-08-05T01:46:29;101118.91;;;14.16;61.02
62926;BME280;55732;52.248;-0.844;2022-08-05T01:48:57;101115.16;;;14.20;61.14
62926;BME280;55732;52.248;-0.844;2022-08-05T01:51:25;101120.27;;;14.24;61.00
62926;BME280;55732;52.248;-0.844;2022-08-05T01:53:53;101123.28;;;14.25;61.25
62926;BME280;55732;52.248;-0.844;2022-08-05T01:56:22;101125.77;;;14.24;61.15
62926;BME280;55732;52.248;-0.844;2022-08-05T01:58:52;101124.88;;;14.25;61.19
62926;BME280;55732;52.248;-0.844;2022-08-05T02:01:19;101121.70;;;14.24;61.30
62926;BME280;55732;52.248;-0.844;2022-08-05T02:03:47;101129.30;;;14.26;61.38
62926;BME280;55732;52.248;-0.844;2022-08-05T02:06:13;101129.65;;;14.26;61.66
62926;BME280;55732;52.248;-0.844;2022-08-05T02:08:40;101130.02;;;14.25;61.57
62926;BME280;55732;52.248;-0.844;2022-08-05T02:11:16;101141.00;;;14.25;61.59
62926;BME280;55732;52.248;-0.844;2022-08-05T02:16:26;101144.72;;;14.24;61.67
62926;BME280;55732;52.248;-0.844;2022-08-05T02:18:55;101142.60;;;14.23;61.89
62926;BME280;55732;52.248;-0.844;2022-08-05T02:21:25;101144.90;;;14.23;61.63
62926;BME280;55732;52.248;-0.844;2022-08-05T02:23:55;101145.79;;;14.24;61.80
62926;BME280;55732;52.248;-0.844;2022-08-05T02:26:24;101145.61;;;14.23;61.85
62926;BME280;55732;52.248;-0.844;2022-08-05T02:28:52;101149.86;;;14.23;61.56
62926;BME280;55732;52.248;-0.844;2022-08-05T02:31:26;101153.95;;;14.21;61.67
62926;BME280;55732;52.248;-0.844;2022-08-05T02:34:02;101152.70;;;14.22;61.69
62926;BME280;55732;52.248;-0.844;2022-08-05T02:36:30;101151.11;;;14.20;61.71
62926;BME280;55732;52.248;-0.844;2022-08-05T02:38:57;101152.55;;;14.17;61.57
62926;BME280;55732;52.248;-0.844;2022-08-05T02:41:25;101148.88;;;14.14;61.48
62926;BME280;55732;52.248;-0.844;2022-08-05T02:43:52;101148.35;;;14.11;61.71
62926;BME280;55732;52.248;-0.844;2022-08-05T02:46:20;101150.31;;;14.08;61.86
62926;BME280;55732;52.248;-0.844;2022-08-05T02:48:47;101151.23;;;14.04;61.81
62926;BME280;55732;52.248;-0.844;2022-08-05T02:51:14;101156.73;;;14.01;61.97
62926;BME280;55732;52.248;-0.844;2022-08-05T02:53:40;101149.31;;;13.99;62.04
62926;BME280;55732;52.248;-0.844;2022-08-05T02:56:11;101149.85;;;13.97;61.94
62926;BME280;55732;52.248;-0.844;2022-08-05T02:58:40;101150.03;;;13.94;62.16
62926;BME280;55732;52.248;-0.844;2022-08-05T03:01:08;101152.55;;;13.92;62.25
62926;BME280;55732;52.248;-0.844;2022-08-05T03:03:38;101155.58;;;13.90;62.21
62926;BME280;55732;52.248;-0.844;2022-08-05T03:06:06;101152.21;;;13.86;62.42
62926;BME280;55732;52.248;-0.844;2022-08-05T03:08:31;101154.18;;;13.82;62.47
62926;BME280;55732;52.248;-0.844;2022-08-05T03:10:58;101152.45;;;13.77;62.70
62926;BME280;55732;52.248;-0.844;2022-08-05T03:13:23;101156.71;;;13.72;62.77
62926;BME280;55732;52.248;-0.844;2022-08-05T03:15:48;101155.48;;;13.69;62.96
62926;BME280;55732;52.248;-0.844;2022-08-05T03:18:14;101154.45;;;13.65;63.17
62926;BME280;55732;52.248;-0.844;2022-08-05T03:20:39;101152.87;;;13.63;63.39
62926;BME280;55732;52.248;-0.844;2022-08-05T03:23:07;101157.65;;;13.59;63.59
62926;BME280;55732;52.248;-0.844;2022-08-05T03:25:34;101163.67;;;13.58;63.81
62926;BME280;55732;52.248;-0.844;2022-08-05T03:28:04;101164.92;;;13.57;63.96
62926;BME280;55732;52.248;-0.844;2022-08-05T03:30:31;101166.36;;;13.56;64.18
62926;BME280;55732;52.248;-0.844;2022-08-05T03:32:58;101173.61;;;13.54;64.07
62926;BME280;55732;52.248;-0.844;2022-08-05T03:35:28;101176.98;;;13.53;64.17
62926;BME280;55732;52.248;-0.844;2022-08-05T03:37:58;101175.73;;;13.52;64.35
62926;BME280;55732;52.248;-0.844;2022-08-05T03:40:24;101173.98;;;13.50;64.29
62926;BME280;55732;52.248;-0.844;2022-08-05T03:42:50;101175.58;;;13.47;64.38
62926;BME280;55732;52.248;-0.844;2022-08-05T03:45:16;101171.90;;;13.42;64.47
62926;BME280;55732;52.248;-0.844;2022-08-05T03:47:41;101173.48;;;13.36;64.51
62926;BME280;55732;52.248;-0.844;2022-08-05T03:50:08;101179.16;;;13.32;64.55
62926;BME280;55732;52.248;-0.844;2022-08-05T03:52:41;101185.02;;;13.27;64.61
62926;BME280;55732;52.248;-0.844;2022-08-05T03:55:11;101183.64;;;13.18;64.90
62926;BME280;55732;52.248;-0.844;2022-08-05T03:57:39;101186.95;;;13.12;65.16
62926;BME280;55732;52.248;-0.844;2022-08-05T04:00:10;101192.29;;;13.08;65.35
62926;BME280;55732;52.248;-0.844;2022-08-05T04:02:37;101191.23;;;13.02;65.70
62926;BME280;55732;52.248;-0.844;2022-08-05T04:05:06;101191.94;;;12.97;65.70
62926;BME280;55732;52.248;-0.844;2022-08-05T04:07:33;101198.13;;;12.91;65.86
62926;BME280;55732;52.248;-0.844;2022-08-05T04:09:58;101202.19;;;12.89;66.08
62926;BME280;55732;52.248;-0.844;2022-08-05T04:12:24;101207.51;;;12.86;66.15
62926;BME280;55732;52.248;-0.844;2022-08-05T04:14:50;101212.81;;;12.82;66.25
62926;BME280;55732;52.248;-0.844;2022-08-05T04:17:16;101214.04;;;12.80;66.22
62926;BME280;55732;52.248;-0.844;2022-08-05T04:19:43;101213.70;;;12.79;66.44
62926;BME280;55732;52.248;-0.844;2022-08-05T04:22:09;101216.70;;;12.77;66.39
62926;BME280;55732;52.248;-0.844;2022-08-05T04:24:37;101219.16;;;12.76;66.52
62926;BME280;55732;52.248;-0.844;2022-08-05T04:27:03;101222.34;;;12.76;66.54
62926;BME280;55732;52.248;-0.844;2022-08-05T04:29:28;101225.01;;;12.74;66.51
62926;BME280;55732;52.248;-0.844;2022-08-05T04:31:54;101224.66;;;12.74;66.61
62926;BME280;55732;52.248;-0.844;2022-08-05T04:34:19;101226.95;;;12.74;66.91
62926;BME280;55732;52.248;-0.844;2022-08-05T04:36:44;101223.06;;;12.74;66.74
62926;BME280;55732;52.248;-0.844;2022-08-05T04:39:10;101228.38;;;12.73;66.75
62926;BME280;55732;52.248;-0.844;2022-08-05T04:41:35;101223.77;;;12.70;66.74
62926;BME280;55732;52.248;-0.844;2022-08-05T04:44:01;101229.41;;;12.68;66.98
62926;BME280;55732;52.248;-0.844;2022-08-05T04:46:26;101228.70;;;12.67;66.96
62926;BME280;55732;52.248;-0.844;2022-08-05T04:48:51;101228.52;;;12.65;66.65
62926;BME280;55732;52.248;-0.844;2022-08-05T04:51:17;101234.73;;;12.61;67.11
62926;BME280;55732;52.248;-0.844;2022-08-05T04:53:42;101235.07;;;12.59;67.40
62926;BME280;55732;52.248;-0.844;2022-08-05T04:56:08;101238.08;;;12.60;67.44
62926;BME280;55732;52.248;-0.844;2022-08-05T04:58:33;101239.66;;;12.62;67.38
62926;BME280;55732;52.248;-0.844;2022-08-05T05:00:59;101242.14;;;12.65;67.44
62926;BME280;55732;52.248;-0.844;2022-08-05T05:03:25;101242.30;;;12.67;67.34
62926;BME280;55732;52.248;-0.844;2022-08-05T05:05:50;101241.44;;;12.78;67.20
62926;BME280;55732;52.248;-0.844;2022-08-05T05:08:16;101235.89;;;13.41;66.29
62926;BME280;55732;52.248;-0.844;2022-08-05T05:10:44;101235.02;;;14.30;64.92
62926;BME280;55732;52.248;-0.844;2022-08-05T05:13:14;101239.85;;;14.78;64.18
62926;BME280;55732;52.248;-0.844;2022-08-05T05:15:40;101236.96;;;15.04;63.21
62926;BME280;55732;52.248;-0.844;2022-08-05T05:18:06;101233.43;;;15.21;62.73
62926;BME280;55732;52.248;-0.844;2022-08-05T05:20:33;101233.40;;;15.24;62.30
62926;BME280;55732;52.248;-0.844;2022-08-05T05:23:00;101238.62;;;15.16;62.14
62926;BME280;55732;52.248;-0.844;2022-08-05T05:25:29;101239.91;;;15.10;62.21
62926;BME280;55732;52.248;-0.844;2022-08-05T05:27:54;101242.73;;;15.13;61.92
62926;BME280;55732;52.248;-0.844;2022-08-05T05:30:21;101240.39;;;15.18;61.83
62926;BME280;55732;52.248;-0.844;2022-08-05T05:32:47;101244.75;;;15.24;61.92
62926;BME280;55732;52.248;-0.844;2022-08-05T05:35:14;101247.70;;;15.33;61.89
62926;BME280;55732;52.248;-0.844;2022-08-05T05:37:53;101247.28;;;15.37;61.64
62926;BME280;55732;52.248;-0.844;2022-08-05T05:40:21;101261.95;;;15.25;61.64
62926;BME280;55732;52.248;-0.844;2022-08-05T05:42:48;101265.45;;;15.12;61.75
62926;BME280;55732;52.248;-0.844;2022-08-05T05:45:14;101270.16;;;15.00;62.07
62926;BME280;55732;52.248;-0.844;2022-08-05T05:47:40;101269.37;;;14.88;61.98
62926;BME280;55732;52.248;-0.844;2022-08-05T05:50:07;101272.84;;;14.75;62.19
62926;BME280;55732;52.248;-0.844;2022-08-05T05:52:33;101272.55;;;14.65;62.59
62926;BME280;55732;52.248;-0.844;2022-08-05T05:55:03;101282.90;;;14.56;62.82
62926;BME280;55732;52.248;-0.844;2022-08-05T05:57:29;101284.54;;;14.49;62.84
62926;BME280;55732;52.248;-0.844;2022-08-05T05:59:55;101282.27;;;14.42;63.14
62926;BME280;55732;52.248;-0.844;2022-08-05T06:02:21;101289.02;;;14.39;63.21
62926;BME280;55732;52.248;-0.844;2022-08-05T06:04:46;101295.56;;;14.36;63.33
62926;BME280;55732;52.248;-0.844;2022-08-05T06:07:12;101295.40;;;14.32;63.43
62926;BME280;55732;52.248;-0.844;2022-08-05T06:09:37;101295.79;;;14.27;63.54
62926;BME280;55732;52.248;-0.844;2022-08-05T06:12:03;101297.05;;;14.24;63.76
62926;BME280;55732;52.248;-0.844;2022-08-05T06:14:30;101300.77;;;14.22;63.91
62926;BME280;55732;52.248;-0.844;2022-08-05T06:16:55;101301.13;;;14.19;63.94
62926;BME280;55732;52.248;-0.844;2022-08-05T06:19:21;101299.34;;;14.26;63.95
62926;BME280;55732;52.248;-0.844;2022-08-05T06:21:46;101307.94;;;14.44;63.96
62926;BME280;55732;52.248;-0.844;2022-08-05T06:24:12;101306.80;;;14.60;63.73
62926;BME280;55732;52.248;-0.844;2022-08-05T06:26:40;101321.78;;;14.73;63.46
62926;BME280;55732;52.248;-0.844;2022-08-05T06:29:06;101320.72;;;14.97;63.31
62926;BME280;55732;52.248;-0.844;2022-08-05T06:31:32;101320.91;;;15.20;62.87
62926;BME280;55732;52.248;-0.844;2022-08-05T06:33:57;101323.55;;;15.41;62.35
62926;BME280;55732;52.248;-0.844;2022-08-05T06:36:22;101326.56;;;15.95;61.82
62926;BME280;55732;52.248;-0.844;2022-08-05T06:38:48;101321.75;;;16.67;60.19
62926;BME280;55732;52.248;-0.844;2022-08-05T06:41:18;101319.39;;;17.06;59.53
62926;BME280;55732;52.248;-0.844;2022-08-05T06:43:43;101324.55;;;17.27;58.70
62926;BME280;55732;52.248;-0.844;2022-08-05T06:46:09;101322.30;;;17.44;58.03
62926;BME280;55732;52.248;-0.844;2022-08-05T06:48:35;101319.73;;;17.69;57.45
62926;BME280;55732;52.248;-0.844;2022-08-05T06:51:02;101321.06;;;17.74;56.98
62926;BME280;55732;52.248;-0.844;2022-08-05T06:53:28;101316.95;;;17.67;56.76
62926;BME280;55732;52.248;-0.844;2022-08-05T06:55:53;101323.59;;;17.62;56.89
62926;BME280;55732;52.248;-0.844;2022-08-05T06:58:19;101323.25;;;17.60;56.91
62926;BME280;55732;52.248;-0.844;2022-08-05T07:00:44;101325.73;;;17.73;56.63
62926;BME280;55732;52.248;-0.844;2022-08-05T07:03:10;101328.85;;;18.05;56.14
62926;BME280;55732;52.248;-0.844;2022-08-05T07:05:35;101332.90;;;18.16;55.92
62926;BME280;55732;52.248;-0.844;2022-08-05T07:08:01;101333.97;;;18.24;55.89
62926;BME280;55732;52.248;-0.844;2022-08-05T07:10:26;101332.98;;;18.37;55.51
62926;BME280;55732;52.248;-0.844;2022-08-05T07:12:51;101336.00;;;18.46;55.07
62926;BME280;55732;52.248;-0.844;2022-08-05T07:15:36;101335.96;;;18.48;54.81
62926;BME280;55732;52.248;-0.844;2022-08-05T07:18:20;101339.25;;;18.43;54.59
62926;BME280;55732;52.248;-0.844;2022-08-05T07:20:45;101341.56;;;18.44;54.65
62926;BME280;55732;52.248;-0.844;2022-08-05T07:23:10;101337.41;;;18.47;54.51
62926;BME280;55732;52.248;-0.844;2022-08-05T07:25:36;101345.10;;;18.46;54.46
62926;BME280;55732;52.248;-0.844;2022-08-05T07:28:01;101347.30;;;18.43;54.25
62926;BME280;55732;52.248;-0.844;2022-08-05T07:30:27;101346.77;;;18.42;54.19
62926;BME280;55732;52.248;-0.844;2022-08-05T07:32:52;101353.65;;;18.54;53.70
62926;BME280;55732;52.248;-0.844;2022-08-05T07:35:18;101354.16;;;18.73;53.37
62926;BME280;55732;52.248;-0.844;2022-08-05T07:37:43;101361.11;;;18.96;52.86
62926;BME280;55732;52.248;-0.844;2022-08-05T07:40:09;101361.23;;;18.99;52.60
62926;BME280;55732;52.248;-0.844;2022-08-05T07:42:35;101357.46;;;19.07;52.22
62926;BME280;55732;52.248;-0.844;2022-08-05T07:45:00;101361.79;;;19.28;51.96
62926;BME280;55732;52.248;-0.844;2022-08-05T07:47:26;101356.16;;;19.52;51.38
62926;BME280;55732;52.248;-0.844;2022-08-05T07:49:51;101348.91;;;20.74;49.62
62926;BME280;55732;52.248;-0.844;2022-08-05T07:52:20;101353.55;;;22.20;47.14
62926;BME280;55732;52.248;-0.844;2022-08-05T07:54:46;101349.39;;;23.34;45.06
62926;BME280;55732;52.248;-0.844;2022-08-05T07:57:12;101348.48;;;24.64;41.71
62926;BME280;55732;52.248;-0.844;2022-08-05T07:59:38;101349.86;;;25.43;39.78
62926;BME280;55732;52.248;-0.844;2022-08-05T08:02:04;101348.29;;;26.86;38.30
62926;BME280;55732;52.248;-0.844;2022-08-05T08:04:31;101346.35;;;28.51;35.93
62926;BME280;55732;52.248;-0.844;2022-08-05T08:06:56;101350.39;;;29.00;34.30
62926;BME280;55732;52.248;-0.844;2022-08-05T08:09:25;101349.48;;;29.43;33.42
62926;BME280;55732;52.248;-0.844;2022-08-05T08:11:50;101352.01;;;30.04;32.88
62926;BME280;55732;52.248;-0.844;2022-08-05T08:14:16;101352.45;;;28.99;32.76
62926;BME280;55732;52.248;-0.844;2022-08-05T08:16:41;101353.84;;;28.33;33.56
62926;BME280;55732;52.248;-0.844;2022-08-05T08:19:06;101348.89;;;28.93;32.72
62926;BME280;55732;52.248;-0.844;2022-08-05T08:21:33;101352.20;;;29.05;32.02
62926;BME280;55732;52.248;-0.844;2022-08-05T08:23:58;101364.05;;;27.41;32.59
62926;BME280;55732;52.248;-0.844;2022-08-05T08:26:24;101365.55;;;26.56;34.01
62926;BME280;55732;52.248;-0.844;2022-08-05T08:28:49;101365.17;;;28.76;31.91
62926;BME280;55732;52.248;-0.844;2022-08-05T08:31:15;101367.35;;;30.78;28.76
62926;BME280;55732;52.248;-0.844;2022-08-05T08:33:42;101368.31;;;32.44;27.19
62926;BME280;55732;52.248;-0.844;2022-08-05T08:36:07;101363.67;;;33.99;26.01
62926;BME280;55732;52.248;-0.844;2022-08-05T08:38:34;101371.64;;;34.29;25.34
62926;BME280;55732;52.248;-0.844;2022-08-05T08:41:04;101372.45;;;35.47;24.01
62926;BME280;55732;52.248;-0.844;2022-08-05T08:43:31;101367.55;;;36.62;22.29
62926;BME280;55732;52.248;-0.844;2022-08-05T08:46:00;101362.71;;;37.31;21.73
62926;BME280;55732;52.248;-0.844;2022-08-05T08:48:26;101361.37;;;38.42;21.33
62926;BME280;55732;52.248;-0.844;2022-08-05T08:50:52;101368.08;;;39.64;20.41
62926;BME280;55732;52.248;-0.844;2022-08-05T08:53:18;101362.39;;;40.73;19.38
62926;BME280;55732;52.248;-0.844;2022-08-05T08:55:44;101372.61;;;41.57;18.10
62926;BME280;55732;52.248;-0.844;2022-08-05T08:58:11;101372.67;;;41.88;17.34
62926;BME280;55732;52.248;-0.844;2022-08-05T09:00:40;101372.11;;;42.39;16.68
62926;BME280;55732;52.248;-0.844;2022-08-05T09:03:06;101371.85;;;42.78;16.04
62926;BME280;55732;52.248;-0.844;2022-08-05T09:05:33;101374.16;;;43.27;15.82
62926;BME280;55732;52.248;-0.844;2022-08-05T09:07:58;101375.58;;;43.43;15.15
62926;BME280;55732;52.248;-0.844;2022-08-05T09:10:24;101375.70;;;43.46;15.19
62926;BME280;55732;52.248;-0.844;2022-08-05T09:12:50;101373.20;;;43.56;14.63
62926;BME280;55732;52.248;-0.844;2022-08-05T09:15:16;101371.25;;;43.47;14.49
62926;BME280;55732;52.248;-0.844;2022-08-05T09:17:42;101375.79;;;43.65;14.39
62926;BME280;55732;52.248;-0.844;2022-08-05T09:20:08;101371.16;;;43.76;14.12
62926;BME280;55732;52.248;-0.844;2022-08-05T09:23:04;101370.67;;;43.81;13.99
62926;BME280;55732;52.248;-0.844;2022-08-05T09:25:31;101373.90;;;44.10;13.69
62926;BME280;55732;52.248;-0.844;2022-08-05T09:28:07;101373.20;;;44.04;13.04
62926;BME280;55732;52.248;-0.844;2022-08-05T09:30:33;101365.89;;;43.38;13.55
62926;BME280;55732;52.248;-0.844;2022-08-05T09:33:02;101366.52;;;43.43;13.51
62926;BME280;55732;52.248;-0.844;2022-08-05T09:35:27;101362.27;;;42.88;13.74
62926;BME280;55732;52.248;-0.844;2022-08-05T09:37:55;101357.69;;;42.46;13.95
62926;BME280;55732;52.248;-0.844;2022-08-05T09:40:36;101360.52;;;42.86;13.87
62926;BME280;55732;52.248;-0.844;2022-08-05T09:43:05;101366.67;;;43.16;13.06
62926;BME280;55732;52.248;-0.844;2022-08-05T09:45:40;101363.90;;;42.94;13.15
62926;BME280;55732;52.248;-0.844;2022-08-05T09:48:28;101370.15;;;42.68;13.10
62926;BME280;55732;52.248;-0.844;2022-08-05T09:51:02;101366.98;;;42.78;13.02
62926;BME280;55732;52.248;-0.844;2022-08-05T09:53:29;101367.59;;;43.09;12.88
62926;BME280;55732;52.248;-0.844;2022-08-05T09:55:59;101366.34;;;43.17;12.84
62926;BME280;55732;52.248;-0.844;2022-08-05T09:58:26;101358.31;;;42.96;12.89
62926;BME280;55732;52.248;-0.844;2022-08-05T10:01:03;101360.52;;;42.64;12.98
62926;BME280;55732;52.248;-0.844;2022-08-05T10:03:29;101358.98;;;40.94;13.95
62926;BME280;55732;52.248;-0.844;2022-08-05T10:06:07;101362.33;;;39.89;14.59
62926;BME280;55732;52.248;-0.844;2022-08-05T10:08:36;101359.95;;;39.95;14.32
62926;BME280;55732;52.248;-0.844;2022-08-05T10:11:04;101368.35;;;37.46;15.78
62926;BME280;55732;52.248;-0.844;2022-08-05T10:13:39;101372.05;;;34.59;17.70
62926;BME280;55732;52.248;-0.844;2022-08-05T10:16:06;101377.55;;;32.42;19.56
62926;BME280;55732;52.248;-0.844;2022-08-05T10:18:33;101380.88;;;31.98;20.32
62926;BME280;55732;52.248;-0.844;2022-08-05T10:21:03;101381.70;;;31.73;20.85
62926;BME280;55732;52.248;-0.844;2022-08-05T10:23:35;101379.09;;;33.13;20.01
62926;BME280;55732;52.248;-0.844;2022-08-05T10:26:05;101374.36;;;34.31;19.41
62926;BME280;55732;52.248;-0.844;2022-08-05T10:28:32;101380.02;;;35.25;18.81
62926;BME280;55732;52.248;-0.844;2022-08-05T10:30:59;101378.21;;;35.48;18.61
62926;BME280;55732;52.248;-0.844;2022-08-05T10:33:28;101378.84;;;34.61;19.30
62926;BME280;55732;52.248;-0.844;2022-08-05T10:35:55;101382.98;;;33.23;20.24
62926;BME280;55732;52.248;-0.844;2022-08-05T10:38:22;101383.65;;;32.69;20.41
62926;BME280;55732;52.248;-0.844;2022-08-05T10:45:59;101394.79;;;28.58;23.97
62926;BME280;55732;52.248;-0.844;2022-08-05T10:54:11;101394.43;;;26.99;26.41
62926;BME280;55732;52.248;-0.844;2022-08-05T10:56:43;101390.83;;;26.99;26.60
62926;BME280;55732;52.248;-0.844;2022-08-05T10:59:08;101393.97;;;26.81;27.16
62926;BME280;55732;52.248;-0.844;2022-08-05T11:01:40;101395.94;;;26.84;26.93
62926;BME280;55732;52.248;-0.844;2022-08-05T11:04:14;101390.92;;;26.84;26.91
62926;BME280;55732;52.248;-0.844;2022-08-05T11:09:48;101396.66;;;26.58;27.26
62926;BME280;55732;52.248;-0.844;2022-08-05T11:15:46;101406.18;;;25.49;28.40
62926;BME280;55732;52.248;-0.844;2022-08-05T11:18:07;101413.09;;;25.00;29.34
62926;BME280;55732;52.248;-0.844;2022-08-05T11:20:44;101413.67;;;24.84;29.66
62926;BME280;55732;52.248;-0.844;2022-08-05T11:33:34;101427.36;;;24.41;30.55
62926;BME280;55732;52.248;-0.844;2022-08-05T11:36:05;101426.60;;;24.13;31.10
62926;BME280;55732;52.248;-0.844;2022-08-05T11:41:17;101427.80;;;23.86;31.60
62926;BME280;55732;52.248;-0.844;2022-08-05T11:43:56;101432.67;;;23.77;32.09
62926;BME280;55732;52.248;-0.844;2022-08-05T11:46:47;101435.02;;;23.85;31.95
62926;BME280;55732;52.248;-0.844;2022-08-05T11:49:14;101436.61;;;23.82;31.83
62926;BME280;55732;52.248;-0.844;2022-08-05T11:51:41;101433.38;;;23.82;31.93
62926;BME280;55732;52.248;-0.844;2022-08-05T11:54:12;101439.42;;;23.75;32.25
62926;BME280;55732;52.248;-0.844;2022-08-05T11:56:50;101431.32;;;23.54;32.64
62926;BME280;55732;52.248;-0.844;2022-08-05T11:59:24;101435.92;;;23.41;32.83
62926;BME280;55732;52.248;-0.844;2022-08-05T12:02:03;101437.83;;;23.25;32.68
62926;BME280;55732;52.248;-0.844;2022-08-05T12:07:06;101441.69;;;23.28;32.43
62926;BME280;55732;52.248;-0.844;2022-08-05T12:09:36;101438.20;;;23.56;32.13
62926;BME280;55732;52.248;-0.844;2022-08-05T12:12:02;101435.09;;;23.79;31.86
62926;BME280;55732;52.248;-0.844;2022-08-05T12:14:40;101428.42;;;24.00;31.66
62926;BME280;55732;52.248;-0.844;2022-08-05T12:17:13;101433.39;;;24.35;31.49
62926;BME280;55732;52.248;-0.844;2022-08-05T12:19:41;101430.35;;;24.59;30.86
62926;BME280;55732;52.248;-0.844;2022-08-05T12:22:07;101428.11;;;24.75;30.54
62926;BME280;55732;52.248;-0.844;2022-08-05T12:24:33;101436.22;;;24.99;30.18
62926;BME280;55732;52.248;-0.844;2022-08-05T12:27:00;101433.94;;;25.16;29.70
62926;BME280;55732;52.248;-0.844;2022-08-05T12:29:26;101432.70;;;25.19;29.68
62926;BME280;55732;52.248;-0.844;2022-08-05T12:31:57;101431.73;;;25.35;29.65
62926;BME280;55732;52.248;-0.844;2022-08-05T12:34:30;101434.24;;;25.58;28.92
62926;BME280;55732;52.248;-0.844;2022-08-05T12:37:02;101433.16;;;25.50;28.76
62926;BME280;55732;52.248;-0.844;2022-08-05T12:39:36;101432.66;;;25.35;29.03
62926;BME280;55732;52.248;-0.844;2022-08-05T12:42:01;101434.41;;;24.99;29.69
62926;BME280;55732;52.248;-0.844;2022-08-05T12:44:27;101438.58;;;24.75;30.04
62926;BME280;55732;52.248;-0.844;2022-08-05T12:46:54;101446.39;;;24.74;30.04
62926;BME280;55732;52.248;-0.844;2022-08-05T12:49:20;101445.02;;;24.56;29.94
62926;BME280;55732;52.248;-0.844;2022-08-05T12:54:24;101447.48;;;24.38;30.36
62926;BME280;55732;52.248;-0.844;2022-08-05T12:56:52;101442.34;;;24.48;30.07
62926;BME280;55732;52.248;-0.844;2022-08-05T12:59:23;101447.76;;;24.47;29.83
62926;BME280;55732;52.248;-0.844;2022-08-05T13:02:02;101446.91;;;24.51;29.86
62926;BME280;55732;52.248;-0.844;2022-08-05T13:04:30;101442.02;;;24.52;29.47
62926;BME280;55732;52.248;-0.844;2022-08-05T13:06:58;101438.13;;;24.50;29.57
62926;BME280;55732;52.248;-0.844;2022-08-05T13:09:25;101444.66;;;24.53;29.66
62926;BME280;55732;52.248;-0.844;2022-08-05T13:12:05;101443.06;;;24.68;29.70
62926;BME280;55732;52.248;-0.844;2022-08-05T13:14:37;101445.45;;;24.98;29.32
62926;BME280;55732;52.248;-0.844;2022-08-05T13:17:29;101442.35;;;25.17;28.93
62926;BME280;55732;52.248;-0.844;2022-08-05T13:22:23;101439.45;;;25.03;28.90
62926;BME280;55732;52.248;-0.844;2022-08-05T13:24:49;101448.14;;;25.02;28.87
62926;BME280;55732;52.248;-0.844;2022-08-05T13:27:29;101437.52;;;25.02;28.58
62926;BME280;55732;52.248;-0.844;2022-08-05T13:29:55;101441.36;;;25.04;28.11
62926;BME280;55732;52.248;-0.844;2022-08-05T13:32:21;101436.52;;;25.07;27.54
62926;BME280;55732;52.248;-0.844;2022-08-05T13:34:47;101445.89;;;25.15;27.68